createdAt,value
2022-10-17T00:00:32.478Z,7.82
2022-10-17T00:02:58.979Z,12.52
2022-10-17T00:05:25.324Z,9.60
2022-10-17T00:07:52.757Z,8.90
2022-10-17T00:10:20.614Z,9.10
2022-10-17T00:12:47.184Z,5.65
2022-10-17T00:15:18.844Z,9.30
2022-10-17T00:17:45.611Z,17.05
2022-10-17T00:20:12.858Z,6.90
2022-10-17T00:22:39.678Z,8.30
2022-10-17T00:25:06.392Z,6.07
2022-10-17T00:27:40.980Z,6.35
2022-10-17T00:30:11.679Z,10.23
2022-10-17T00:32:38.139Z,6.43
2022-10-17T00:35:05.000Z,7.88
2022-10-17T00:37:32.243Z,9.85
2022-10-17T00:39:58.947Z,8.10
2022-10-17T00:42:27.134Z,8.57
2022-10-17T00:45:11.296Z,9.05
2022-10-17T00:47:37.986Z,6.47
2022-10-17T00:50:07.396Z,7.88
2022-10-17T00:52:34.286Z,7.18
2022-10-17T00:55:11.307Z,7.50
2022-10-17T00:57:39.380Z,10.55
2022-10-17T01:00:09.923Z,6.70
2022-10-17T01:02:37.645Z,10.85
2022-10-17T01:05:05.041Z,7.85
2022-10-17T01:07:37.164Z,8.05
2022-10-17T01:10:06.062Z,5.25
2022-10-17T01:12:51.874Z,6.38
2022-10-17T01:15:32.851Z,7.18
2022-10-17T01:18:24.127Z,7.95
2022-10-17T01:21:17.141Z,7.40
2022-10-17T01:24:16.383Z,7.82
2022-10-17T01:27:02.687Z,7.93
2022-10-17T01:29:55.070Z,8.30
2022-10-17T01:32:25.332Z,7.82
2022-10-17T01:34:59.252Z,9.15
2022-10-17T01:37:47.197Z,6.97
2022-10-17T01:40:39.376Z,9.43
2022-10-17T01:43:18.056Z,5.28
2022-10-17T01:45:53.480Z,9.65
2022-10-17T01:48:24.313Z,5.82
2022-10-17T01:51:00.740Z,4.03
2022-10-17T01:53:33.610Z,7.50
2022-10-17T01:56:04.640Z,4.43
2022-10-17T01:58:46.183Z,8.15
2022-10-17T02:01:13.306Z,8.02
2022-10-17T02:03:43.659Z,5.65
2022-10-17T02:06:10.026Z,11.07
2022-10-17T02:08:45.633Z,10.07
2022-10-17T02:11:17.582Z,8.77
2022-10-17T02:14:20.889Z,7.97
2022-10-17T02:17:17.893Z,8.98
2022-10-17T02:20:15.621Z,9.20
2022-10-17T02:23:02.838Z,9.15
2022-10-17T02:25:45.775Z,6.10
2022-10-17T02:28:39.298Z,7.25
2022-10-17T02:31:26.323Z,9.48
2022-10-17T02:34:01.740Z,3.92
2022-10-17T02:36:35.004Z,4.25
2022-10-17T02:39:03.015Z,7.72
2022-10-17T02:41:31.416Z,8.57
2022-10-17T02:44:00.199Z,6.45
2022-10-17T02:46:30.530Z,7.82
2022-10-17T02:49:05.359Z,5.05
2022-10-17T02:51:45.197Z,5.93
2022-10-17T02:54:26.983Z,6.53
2022-10-17T02:56:59.298Z,6.43
2022-10-17T02:59:28.582Z,5.78
2022-10-17T03:01:55.434Z,8.65
2022-10-17T03:04:21.964Z,5.60
2022-10-17T03:06:49.058Z,4.20
2022-10-17T03:09:16.022Z,7.20
2022-10-17T03:11:42.590Z,4.55
2022-10-17T03:14:09.001Z,3.78
2022-10-17T03:16:36.383Z,5.45
2022-10-17T03:19:03.900Z,7.30
2022-10-17T03:21:31.290Z,5.35
2022-10-17T03:23:57.775Z,4.13
2022-10-17T03:26:24.474Z,5.93
2022-10-17T03:28:53.662Z,6.43
2022-10-17T03:31:22.702Z,5.15
2022-10-17T03:33:50.143Z,9.15
2022-10-17T03:36:18.604Z,3.72
2022-10-17T03:38:46.711Z,2.60
2022-10-17T03:41:13.219Z,7.13
2022-10-17T03:43:40.192Z,3.42
2022-10-17T03:46:07.675Z,5.05
2022-10-17T03:48:34.697Z,6.45
2022-10-17T03:51:05.193Z,2.92
2022-10-17T03:53:34.319Z,7.25
2022-10-17T03:56:18.206Z,7.30
2022-10-17T03:58:51.130Z,4.55
2022-10-17T04:01:19.529Z,4.57
2022-10-17T04:03:54.276Z,4.80
2022-10-17T04:06:21.527Z,4.07
2022-10-17T04:08:48.376Z,5.55
2022-10-17T04:11:21.833Z,3.67
2022-10-17T04:13:54.514Z,6.05
2022-10-17T04:16:22.933Z,5.25
2022-10-17T04:19:04.826Z,7.45
2022-10-17T04:21:37.785Z,3.03
2022-10-17T04:24:06.911Z,4.20
2022-10-17T04:26:43.742Z,7.85
2022-10-17T04:29:10.829Z,3.22
2022-10-17T04:31:37.984Z,4.80
2022-10-17T04:34:15.288Z,2.22
2022-10-17T04:36:42.137Z,6.65
2022-10-17T04:39:08.874Z,3.95
2022-10-17T04:41:35.975Z,3.58
2022-10-17T04:44:02.687Z,7.53
2022-10-17T04:46:34.148Z,6.85
2022-10-17T04:49:00.588Z,7.40
2022-10-17T04:51:27.604Z,4.78
2022-10-17T04:54:23.113Z,3.40
2022-10-17T04:56:56.495Z,4.22
2022-10-17T04:59:22.972Z,5.45
2022-10-17T05:01:56.520Z,5.45
2022-10-17T05:04:24.897Z,8.98
2022-10-17T05:06:52.694Z,3.83
2022-10-17T05:09:39.016Z,4.13
2022-10-17T05:12:08.104Z,6.90
2022-10-17T05:14:38.238Z,4.82
2022-10-17T05:17:04.898Z,7.53
2022-10-17T05:19:31.374Z,7.05
2022-10-17T05:21:58.475Z,5.15
2022-10-17T05:24:25.011Z,2.85
2022-10-17T05:26:52.026Z,5.80
2022-10-17T05:29:19.057Z,5.95
2022-10-17T05:31:50.897Z,3.03
2022-10-17T05:34:17.833Z,6.03
2022-10-17T05:36:44.726Z,3.83
2022-10-17T05:39:14.771Z,4.07
2022-10-17T05:41:41.631Z,6.82
2022-10-17T05:44:08.147Z,6.45
2022-10-17T05:46:40.079Z,3.13
2022-10-17T05:49:15.014Z,4.95
2022-10-17T05:51:53.484Z,3.70
2022-10-17T05:54:20.508Z,8.80
2022-10-17T05:56:52.205Z,4.53
2022-10-17T05:59:20.612Z,6.05
2022-10-17T06:01:54.544Z,4.25
2022-10-17T06:04:21.060Z,7.68
2022-10-17T06:06:47.626Z,5.38
2022-10-17T06:09:14.090Z,12.60
2022-10-17T06:11:44.288Z,8.13
2022-10-17T06:14:11.848Z,4.38
2022-10-17T06:16:40.046Z,7.85
2022-10-17T06:19:06.710Z,5.78
2022-10-17T06:21:36.411Z,5.88
2022-10-17T06:24:08.590Z,5.07
2022-10-17T06:26:36.980Z,3.85
2022-10-17T06:29:06.260Z,5.00
2022-10-17T06:31:36.355Z,7.40
2022-10-17T06:34:02.796Z,8.23
2022-10-17T06:36:29.779Z,5.38
2022-10-17T06:38:56.151Z,6.85
2022-10-17T06:41:29.854Z,5.35
2022-10-17T06:44:09.512Z,7.40
2022-10-17T06:46:59.013Z,4.72
2022-10-17T06:49:26.748Z,4.25
2022-10-17T06:52:19.283Z,4.20
2022-10-17T06:55:08.980Z,3.50
2022-10-17T06:57:51.678Z,9.38
2022-10-17T07:00:37.205Z,5.93
2022-10-17T07:03:03.988Z,7.93
2022-10-17T07:05:30.488Z,9.45
2022-10-17T07:07:56.880Z,8.27
2022-10-17T07:10:23.276Z,5.82
2022-10-17T07:12:49.842Z,5.03
2022-10-17T07:15:16.346Z,7.43
2022-10-17T07:17:42.931Z,5.15
2022-10-17T07:20:09.832Z,5.70
2022-10-17T07:22:37.851Z,7.35
2022-10-17T07:25:04.646Z,9.68
2022-10-17T07:27:38.379Z,8.48
2022-10-17T07:30:05.435Z,5.03
2022-10-17T07:32:55.032Z,6.75
2022-10-17T07:35:21.831Z,3.83
2022-10-17T07:37:48.490Z,6.35
2022-10-17T07:40:17.700Z,4.65
2022-10-17T07:42:44.243Z,5.57
2022-10-17T07:45:11.411Z,4.22
2022-10-17T07:47:38.036Z,5.30
2022-10-17T07:50:07.836Z,5.22
2022-10-17T07:52:34.636Z,4.13
2022-10-17T07:55:01.010Z,6.60
2022-10-17T07:57:27.494Z,4.10
2022-10-17T07:59:54.617Z,9.52
2022-10-17T08:02:24.512Z,4.55
2022-10-17T08:04:54.222Z,5.32
2022-10-17T08:07:24.368Z,7.22
2022-10-17T08:09:54.956Z,7.03
2022-10-17T08:12:22.004Z,10.02
2022-10-17T08:14:48.343Z,4.28
2022-10-17T08:17:14.877Z,5.57
2022-10-17T08:19:41.522Z,4.80
2022-10-17T08:22:08.164Z,6.40
2022-10-17T08:24:34.690Z,6.32
2022-10-17T08:27:01.338Z,6.60
2022-10-17T08:29:27.943Z,6.78
2022-10-17T08:31:58.669Z,6.18
2022-10-17T08:34:28.075Z,4.85
2022-10-17T08:36:54.644Z,5.07
2022-10-17T08:39:21.160Z,3.72
2022-10-17T08:41:56.834Z,5.25
2022-10-17T08:44:54.239Z,2.55
2022-10-17T08:47:29.423Z,4.70
2022-10-17T08:50:00.653Z,6.88
2022-10-17T08:52:38.437Z,9.10
2022-10-17T08:55:14.709Z,8.30
2022-10-17T08:57:41.212Z,5.28
2022-10-17T09:00:16.846Z,5.80
2022-10-17T09:03:06.858Z,6.43
2022-10-17T09:05:51.206Z,8.25
2022-10-17T09:08:29.902Z,3.53
2022-10-17T09:11:35.301Z,10.38
2022-10-17T09:14:08.418Z,3.13
2022-10-17T09:17:02.722Z,5.65
2022-10-17T09:19:34.407Z,5.65
2022-10-17T09:22:03.056Z,9.45
2022-10-17T09:24:46.318Z,5.78
2022-10-17T09:27:22.866Z,6.72
2022-10-17T09:29:54.595Z,7.70
2022-10-17T09:32:25.553Z,5.72
2022-10-17T09:34:53.683Z,5.60
2022-10-17T09:37:25.420Z,7.72
2022-10-17T09:39:52.223Z,8.20
2022-10-17T09:42:21.595Z,6.85
2022-10-17T09:45:19.318Z,7.38
2022-10-17T09:47:53.815Z,11.45
2022-10-17T09:50:28.082Z,5.22
2022-10-17T09:52:56.726Z,7.22
2022-10-17T09:55:42.820Z,6.03
2022-10-17T09:58:10.885Z,6.35
2022-10-17T10:00:41.447Z,6.93
2022-10-17T10:03:23.479Z,6.45
2022-10-17T10:06:01.836Z,9.20
2022-10-17T10:08:34.444Z,5.28
2022-10-17T10:11:13.380Z,7.72
2022-10-17T10:13:40.292Z,5.45
2022-10-17T10:16:20.142Z,7.70
2022-10-17T10:18:50.134Z,11.32
2022-10-17T10:21:20.987Z,7.13
2022-10-17T10:23:59.555Z,6.57
2022-10-17T10:26:44.992Z,8.57
2022-10-17T10:29:23.477Z,6.40
2022-10-17T10:31:51.328Z,4.78
2022-10-17T10:34:31.332Z,10.43
2022-10-17T10:37:01.994Z,5.70
2022-10-17T10:39:33.719Z,9.88
2022-10-17T10:42:02.526Z,11.55
2022-10-17T10:44:31.365Z,8.90
2022-10-17T10:47:30.417Z,8.70
2022-10-17T10:50:24.068Z,5.95
2022-10-17T10:52:56.325Z,9.27
2022-10-17T10:55:34.356Z,6.93
2022-10-17T10:58:06.439Z,13.60
2022-10-17T11:00:34.871Z,7.93
2022-10-17T11:03:18.661Z,10.40
2022-10-17T11:05:51.200Z,6.30
2022-10-17T11:08:32.784Z,7.93
2022-10-17T11:10:59.172Z,9.82
2022-10-17T11:13:31.852Z,9.23
2022-10-17T11:16:39.911Z,6.28
2022-10-17T11:19:25.101Z,9.50
2022-10-17T11:22:26.654Z,7.38
2022-10-17T11:25:04.760Z,10.25
2022-10-17T11:27:33.789Z,7.55
2022-10-17T11:30:00.380Z,9.20
2022-10-17T11:32:34.792Z,10.70
2022-10-17T11:35:14.758Z,11.43
2022-10-17T11:37:48.478Z,10.27
2022-10-17T11:40:23.612Z,8.88
2022-10-17T11:43:01.448Z,9.18
2022-10-17T11:45:35.009Z,10.63
2022-10-17T11:48:17.408Z,11.45
2022-10-17T11:53:50.876Z,11.55
2022-10-17T11:56:26.440Z,10.02
2022-10-17T11:59:07.722Z,6.72
2022-10-17T12:01:58.519Z,8.73
2022-10-17T12:05:01.652Z,7.20
2022-10-17T12:08:02.093Z,17.67
2022-10-17T12:10:45.635Z,9.60
2022-10-17T12:13:33.683Z,11.13
2022-10-17T12:16:37.513Z,10.55
2022-10-17T12:19:06.262Z,15.77
2022-10-17T12:21:55.519Z,11.32
2022-10-17T12:24:34.268Z,10.40
2022-10-17T12:27:28.998Z,8.93
2022-10-17T12:30:01.686Z,9.18
2022-10-17T12:32:36.755Z,13.60
2022-10-17T12:35:20.574Z,8.52
2022-10-17T12:37:55.230Z,9.55
2022-10-17T12:40:35.653Z,11.65
2022-10-17T12:43:28.223Z,7.15
2022-10-17T12:45:55.804Z,9.30
2022-10-17T12:48:34.496Z,10.60
2022-10-17T12:51:35.675Z,8.50
2022-10-17T12:54:14.918Z,11.32
2022-10-17T12:56:46.557Z,12.07
2022-10-17T12:59:25.852Z,11.30
2022-10-17T13:01:58.977Z,9.85
2022-10-17T13:04:27.525Z,11.32
2022-10-17T13:06:59.037Z,10.45
2022-10-17T13:09:33.202Z,9.18
2022-10-17T13:12:03.063Z,7.28
2022-10-17T13:14:31.531Z,13.52
2022-10-17T13:17:03.931Z,11.25
2022-10-17T13:19:40.005Z,9.40
2022-10-17T13:22:22.453Z,12.60
2022-10-17T13:24:50.843Z,11.90
2022-10-17T13:27:23.456Z,13.23
2022-10-17T13:29:50.002Z,14.35
2022-10-17T13:32:16.797Z,13.35
2022-10-17T13:34:43.356Z,14.38
2022-10-17T13:37:15.751Z,14.55
2022-10-17T13:39:55.223Z,14.63
2022-10-17T13:42:37.213Z,15.15
2022-10-17T13:45:04.236Z,14.40
2022-10-17T13:47:36.571Z,17.25
2022-10-17T13:50:09.431Z,14.68
2022-10-17T13:52:43.188Z,13.90
2022-10-17T13:55:17.458Z,17.15
2022-10-17T13:57:44.364Z,22.05
2022-10-17T14:00:21.645Z,17.23
2022-10-17T14:02:48.431Z,17.13
2022-10-17T14:05:20.321Z,17.15
2022-10-17T14:08:22.064Z,15.65
2022-10-17T14:10:49.183Z,19.60
2022-10-17T14:13:22.758Z,16.33
2022-10-17T14:15:50.225Z,16.90
2022-10-17T14:18:47.407Z,16.92
2022-10-17T14:21:40.476Z,15.07
2022-10-17T14:24:23.533Z,16.88
2022-10-17T14:26:52.623Z,19.70
2022-10-17T14:29:31.821Z,12.48
2022-10-17T14:32:02.032Z,19.48
2022-10-17T14:34:35.741Z,15.68
2022-10-17T14:37:08.450Z,14.00
2022-10-17T14:39:35.014Z,16.52
2022-10-17T14:42:04.444Z,17.38
2022-10-17T14:44:34.950Z,14.85
2022-10-17T14:47:30.393Z,16.05
2022-10-17T14:50:02.531Z,13.98
2022-10-17T14:52:30.617Z,15.68
2022-10-17T14:54:58.858Z,16.52
2022-10-17T14:57:29.332Z,21.08
2022-10-17T14:59:57.211Z,15.52
2022-10-17T15:02:29.247Z,18.75
2022-10-17T15:04:55.938Z,21.48
2022-10-17T15:07:23.669Z,16.45
2022-10-17T15:09:51.608Z,16.10
2022-10-17T15:12:25.615Z,23.45
2022-10-17T15:14:53.414Z,14.02
2022-10-17T15:17:33.008Z,13.07
2022-10-17T15:19:59.388Z,19.63
2022-10-17T15:22:26.681Z,17.77
2022-10-17T15:24:53.177Z,17.20
2022-10-17T15:27:22.979Z,16.35
2022-10-17T15:29:51.389Z,19.20
2022-10-17T15:32:17.748Z,19.38
2022-10-17T15:34:44.428Z,19.27
2022-10-17T15:37:18.685Z,16.10
2022-10-17T15:39:52.808Z,15.45
2022-10-17T15:42:20.336Z,18.80
2022-10-17T15:44:49.718Z,14.50
2022-10-17T15:47:34.133Z,16.83
2022-10-17T15:50:01.983Z,13.18
2022-10-17T15:52:28.561Z,13.40
2022-10-17T15:54:56.468Z,16.70
2022-10-17T15:57:28.678Z,16.05
2022-10-17T15:59:57.223Z,13.13
2022-10-17T16:02:24.089Z,14.23
2022-10-17T16:04:51.549Z,13.68
2022-10-17T16:07:21.732Z,12.65
2022-10-17T16:09:48.209Z,13.55
2022-10-17T16:14:49.748Z,14.13
2022-10-17T16:17:17.051Z,13.48
2022-10-17T16:19:43.533Z,12.02
2022-10-17T16:22:21.023Z,10.55
2022-10-17T16:24:47.375Z,12.25
2022-10-17T16:27:13.887Z,14.40
2022-10-17T16:29:40.359Z,14.13
2022-10-17T16:32:06.781Z,14.40
2022-10-17T16:34:35.948Z,11.88
2022-10-17T16:37:02.355Z,17.33
2022-10-17T16:39:28.746Z,14.73
2022-10-17T16:41:57.786Z,18.00
2022-10-17T16:44:25.291Z,13.35
2022-10-17T16:46:51.649Z,14.60
2022-10-17T16:49:18.244Z,18.20
2022-10-17T16:51:44.675Z,16.88
2022-10-17T16:54:11.211Z,14.32
2022-10-17T16:56:37.683Z,17.40
2022-10-17T16:59:10.534Z,13.75
2022-10-17T17:01:40.716Z,17.60
2022-10-17T17:04:10.256Z,15.88
2022-10-17T17:06:38.892Z,13.95
2022-10-17T17:09:09.693Z,16.27
2022-10-17T17:11:37.450Z,13.93
2022-10-17T17:14:05.157Z,14.73
2022-10-17T17:16:33.493Z,17.40
2022-10-17T17:19:05.635Z,18.08
2022-10-17T17:21:33.342Z,18.02
2022-10-17T17:24:01.497Z,19.73
2022-10-17T17:26:31.806Z,19.33
2022-10-17T17:29:00.420Z,17.65
2022-10-17T17:31:33.085Z,20.42
2022-10-17T17:34:00.279Z,21.73
2022-10-17T17:36:33.077Z,17.33
2022-10-17T17:39:01.418Z,20.95
2022-10-17T17:41:28.754Z,20.83
2022-10-17T17:44:12.461Z,17.92
2022-10-17T17:46:43.500Z,21.08
2022-10-17T17:49:12.629Z,21.58
2022-10-17T17:51:41.378Z,16.42
2022-10-17T17:54:11.620Z,25.10
2022-10-17T17:56:38.658Z,22.85
2022-10-17T17:59:05.624Z,24.92
2022-10-17T18:01:38.208Z,20.92
2022-10-17T18:04:08.566Z,21.67
2022-10-17T18:06:38.020Z,23.33
2022-10-17T18:09:06.012Z,20.60
2022-10-17T18:11:32.820Z,26.23
2022-10-17T18:14:03.983Z,23.77
2022-10-17T18:16:33.849Z,24.42
2022-10-17T18:19:08.138Z,22.10
2022-10-17T18:21:36.275Z,22.77
2022-10-17T18:24:07.555Z,25.02
2022-10-17T18:26:34.557Z,24.92
2022-10-17T18:29:01.549Z,22.05
2022-10-17T18:31:35.473Z,24.20
2022-10-17T18:34:03.251Z,23.45
2022-10-17T18:36:30.861Z,21.20
2022-10-17T18:38:58.867Z,23.20
2022-10-17T18:41:27.040Z,25.60
2022-10-17T18:43:56.823Z,30.65
2022-10-17T18:46:32.435Z,22.60
2022-10-17T18:48:58.926Z,24.17
2022-10-17T18:51:25.865Z,23.75
2022-10-17T18:53:54.757Z,28.05
2022-10-17T18:56:22.542Z,22.23
2022-10-17T18:58:48.966Z,27.08
2022-10-17T19:01:21.506Z,24.55
2022-10-17T19:03:49.981Z,23.95
2022-10-17T19:06:18.702Z,24.48
2022-10-17T19:08:45.581Z,21.38
2022-10-17T19:11:15.049Z,24.63
2022-10-17T19:13:42.336Z,19.25
2022-10-17T19:16:11.611Z,25.17
2022-10-17T19:18:38.145Z,20.80
2022-10-17T19:21:07.180Z,21.00
2022-10-17T19:23:35.956Z,27.15
2022-10-17T19:26:08.163Z,24.13
2022-10-17T19:28:36.006Z,21.25
2022-10-17T19:31:02.845Z,18.23
2022-10-17T19:33:30.887Z,16.98
2022-10-17T19:36:03.200Z,15.93
2022-10-17T19:38:29.696Z,15.50
2022-10-17T19:40:56.185Z,13.35
2022-10-17T19:43:22.974Z,12.70
2022-10-17T19:45:57.767Z,9.88
2022-10-17T19:48:33.464Z,10.07
2022-10-17T19:51:00.095Z,11.15
2022-10-17T19:53:29.620Z,9.45
2022-10-17T19:55:57.727Z,11.70
2022-10-17T19:58:25.827Z,10.07
2022-10-17T20:01:03.084Z,6.85
2022-10-17T20:03:29.679Z,6.88
2022-10-17T20:05:56.107Z,7.05
2022-10-17T20:08:22.704Z,6.72
2022-10-17T20:10:55.231Z,5.13
2022-10-17T20:13:21.676Z,5.80
2022-10-17T20:15:58.212Z,10.23
2022-10-17T20:18:25.686Z,7.25
2022-10-17T20:20:52.399Z,6.95
2022-10-17T20:23:18.839Z,5.07
2022-10-17T20:25:45.500Z,8.38
2022-10-17T20:28:11.871Z,5.72
2022-10-17T20:30:44.676Z,4.55
2022-10-17T20:33:14.127Z,2.78
2022-10-17T20:35:41.946Z,4.78
2022-10-17T20:38:08.762Z,2.92
2022-10-17T20:40:35.812Z,4.78
2022-10-17T20:43:07.076Z,5.80
2022-10-17T20:45:50.629Z,3.83
2022-10-17T20:48:18.071Z,9.52
2022-10-17T20:50:44.473Z,3.95
2022-10-17T20:53:35.521Z,5.30
2022-10-17T20:56:12.676Z,6.30
2022-10-17T20:58:39.433Z,8.48
2022-10-17T21:01:07.753Z,4.68
2022-10-17T21:03:37.829Z,5.60
2022-10-17T21:06:08.713Z,4.55
2022-10-17T21:08:35.499Z,4.85
2022-10-17T21:11:10.368Z,6.28
2022-10-17T21:13:37.353Z,4.80
2022-10-17T21:16:05.848Z,3.45
2022-10-17T21:18:32.206Z,7.85
2022-10-17T21:21:14.461Z,5.18
2022-10-17T21:23:42.785Z,4.18
2022-10-17T21:26:10.265Z,5.00
2022-10-17T21:28:37.355Z,6.80
2022-10-17T21:31:25.983Z,7.78
2022-10-17T21:33:55.673Z,6.68
2022-10-17T21:36:24.262Z,7.75
2022-10-17T21:38:52.256Z,4.95
2022-10-17T21:41:20.291Z,3.42
2022-10-17T21:43:55.371Z,3.95
2022-10-17T21:46:22.311Z,7.80
2022-10-17T21:48:49.395Z,5.97
2022-10-17T21:51:18.958Z,5.43
2022-10-17T21:53:45.602Z,7.60
2022-10-17T21:56:15.315Z,6.22
2022-10-17T21:58:43.333Z,13.52
2022-10-17T22:01:17.100Z,8.10
2022-10-17T22:03:46.848Z,10.05
2022-10-17T22:09:14.176Z,10.70
2022-10-17T22:11:41.160Z,9.65
2022-10-17T22:14:12.035Z,11.10
2022-10-17T22:16:38.627Z,12.68
2022-10-17T22:19:06.718Z,10.43
2022-10-17T22:21:35.493Z,17.48
2022-10-17T22:24:05.833Z,10.40
2022-10-17T22:26:34.287Z,8.15
2022-10-17T22:29:02.223Z,12.15
2022-10-17T22:31:28.655Z,13.68
2022-10-17T22:33:55.874Z,13.98
2022-10-17T22:36:22.664Z,14.23
2022-10-17T22:38:49.131Z,16.48
2022-10-17T22:41:15.609Z,16.00
2022-10-17T22:43:42.065Z,14.50
2022-10-17T22:46:09.849Z,11.43
2022-10-17T22:48:36.779Z,15.13
2022-10-17T22:51:03.317Z,17.38
2022-10-17T22:53:29.940Z,11.95
2022-10-17T22:56:00.053Z,15.52
2022-10-17T22:58:28.217Z,19.30
2022-10-17T23:00:55.066Z,15.38
2022-10-17T23:03:23.282Z,12.55
2022-10-17T23:05:51.347Z,16.05
2022-10-17T23:08:18.438Z,13.38
2022-10-17T23:10:45.899Z,14.60
2022-10-17T23:13:13.029Z,12.00
2022-10-17T23:15:39.431Z,11.75
2022-10-17T23:18:06.076Z,13.35
2022-10-17T23:20:32.710Z,12.85
2022-10-17T23:22:59.342Z,14.23
2022-10-17T23:25:25.984Z,12.85
2022-10-17T23:27:52.526Z,18.52
2022-10-17T23:30:19.015Z,13.07
2022-10-17T23:32:45.368Z,12.73
2022-10-17T23:35:12.246Z,16.20
2022-10-17T23:37:38.580Z,13.50
2022-10-17T23:40:06.132Z,16.13
2022-10-17T23:42:32.562Z,17.33
2022-10-17T23:44:59.012Z,16.38
2022-10-17T23:47:25.358Z,14.27
2022-10-17T23:49:51.873Z,17.15
2022-10-17T23:52:18.399Z,16.45
2022-10-17T23:54:44.884Z,18.20
2022-10-17T23:57:11.312Z,18.52
2022-10-17T23:59:37.666Z,16.48
